sensor_id;sensor_type;location;lat;lon;timestamp;temperature;humidity
11089;DHT22;5598;48.648;8.908;2024-03-02T00:00:49;5.70;99.90
11089;DHT22;5598;48.648;8.908;2024-03-02T00:03:16;5.70;99.90
11089;DHT22;5598;48.648;8.908;2024-03-02T00:05:43;5.70;99.90
11089;DHT22;5598;48.648;8.908;2024-03-02T00:08:13;5.70;99.90
11089;DHT22;5598;48.648;8.908;2024-03-02T00:10:45;5.70;99.90
11089;DHT22;5598;48.648;8.908;2024-03-02T00:13:13;5.70;99.90
11089;DHT22;5598;48.648;8.908;2024-03-02T00:15:46;5.70;99.90
11089;DHT22;5598;48.648;8.908;2024-03-02T00:18:14;5.60;99.90
11089;DHT22;5598;48.648;8.908;2024-03-02T00:20:42;5.70;99.90
11089;DHT22;5598;48.648;8.908;2024-03-02T00:23:10;5.60;99.90
11089;DHT22;5598;48.648;8.908;2024-03-02T00:25:43;5.70;99.90
11089;DHT22;5598;48.648;8.908;2024-03-02T00:28:14;5.70;99.90
11089;DHT22;5598;48.648;8.908;2024-03-02T00:31:03;5.70;99.90
11089;DHT22;5598;48.648;8.908;2024-03-02T00:33:32;5.80;99.90
11089;DHT22;5598;48.648;8.908;2024-03-02T00:36:00;5.80;99.90
11089;DHT22;5598;48.648;8.908;2024-03-02T00:38:27;5.80;99.90
11089;DHT22;5598;48.648;8.908;2024-03-02T00:40:58;5.80;99.90
11089;DHT22;5598;48.648;8.908;2024-03-02T00:43:57;5.80;99.90
11089;DHT22;5598;48.648;8.908;2024-03-02T00:46:28;5.70;99.90
11089;DHT22;5598;48.648;8.908;2024-03-02T00:48:57;5.70;99.90
11089;DHT22;5598;48.648;8.908;2024-03-02T00:51:25;5.70;99.90
11089;DHT22;5598;48.648;8.908;2024-03-02T00:53:53;5.70;99.90
11089;DHT22;5598;48.648;8.908;2024-03-02T00:56:25;5.70;99.90
11089;DHT22;5598;48.648;8.908;2024-03-02T00:58:52;5.70;99.90
11089;DHT22;5598;48.648;8.908;2024-03-02T01:01:19;5.70;99.90
11089;DHT22;5598;48.648;8.908;2024-03-02T01:03:49;5.70;99.90
11089;DHT22;5598;48.648;8.908;2024-03-02T01:06:15;5.70;99.90
11089;DHT22;5598;48.648;8.908;2024-03-02T01:08:44;5.60;99.90
11089;DHT22;5598;48.648;8.908;2024-03-02T01:11:16;5.70;99.90
11089;DHT22;5598;48.648;8.908;2024-03-02T01:13:45;5.60;99.90
11089;DHT22;5598;48.648;8.908;2024-03-02T01:16:19;5.60;99.90
11089;DHT22;5598;48.648;8.908;2024-03-02T01:18:46;5.60;99.90
11089;DHT22;5598;48.648;8.908;2024-03-02T01:21:14;5.60;99.90
11089;DHT22;5598;48.648;8.908;2024-03-02T01:23:41;5.60;99.90
11089;DHT22;5598;48.648;8.908;2024-03-02T01:26:08;5.50;99.90
11089;DHT22;5598;48.648;8.908;2024-03-02T01:28:41;5.60;99.90
11089;DHT22;5598;48.648;8.908;2024-03-02T01:31:10;5.50;99.90
11089;DHT22;5598;48.648;8.908;2024-03-02T01:33:38;5.60;99.90
11089;DHT22;5598;48.648;8.908;2024-03-02T01:36:05;5.60;99.90
11089;DHT22;5598;48.648;8.908;2024-03-02T01:38:33;5.50;99.90
11089;DHT22;5598;48.648;8.908;2024-03-02T01:41:07;5.50;99.90
11089;DHT22;5598;48.648;8.908;2024-03-02T01:43:33;5.50;99.90
11089;DHT22;5598;48.648;8.908;2024-03-02T01:46:06;5.50;99.90
11089;DHT22;5598;48.648;8.908;2024-03-02T01:48:34;5.50;99.90
11089;DHT22;5598;48.648;8.908;2024-03-02T01:51:01;5.50;99.90
11089;DHT22;5598;48.648;8.908;2024-03-02T01:53:28;5.50;99.90
11089;DHT22;5598;48.648;8.908;2024-03-02T01:55:55;5.40;99.90
11089;DHT22;5598;48.648;8.908;2024-03-02T01:58:22;5.40;99.90
11089;DHT22;5598;48.648;8.908;2024-03-02T02:00:49;5.40;99.90
11089;DHT22;5598;48.648;8.908;2024-03-02T02:03:16;5.40;99.90
11089;DHT22;5598;48.648;8.908;2024-03-02T02:05:44;5.40;99.90
11089;DHT22;5598;48.648;8.908;2024-03-02T02:08:14;5.30;99.90
11089;DHT22;5598;48.648;8.908;2024-03-02T02:10:41;5.30;99.90
11089;DHT22;5598;48.648;8.908;2024-03-02T02:13:08;5.20;99.90
11089;DHT22;5598;48.648;8.908;2024-03-02T02:15:35;5.20;99.90
11089;DHT22;5598;48.648;8.908;2024-03-02T02:18:03;5.20;99.90
11089;DHT22;5598;48.648;8.908;2024-03-02T02:20:30;5.20;99.90
11089;DHT22;5598;48.648;8.908;2024-03-02T02:23:02;5.20;99.90
11089;DHT22;5598;48.648;8.908;2024-03-02T02:25:29;5.10;99.90
11089;DHT22;5598;48.648;8.908;2024-03-02T02:27:57;5.10;99.90
11089;DHT22;5598;48.648;8.908;2024-03-02T02:30:32;5.10;99.90
11089;DHT22;5598;48.648;8.908;2024-03-02T02:33:06;5.10;99.90
11089;DHT22;5598;48.648;8.908;2024-03-02T02:35:32;5.00;99.90
11089;DHT22;5598;48.648;8.908;2024-03-02T02:38:01;5.00;99.90
11089;DHT22;5598;48.648;8.908;2024-03-02T02:40:28;5.00;99.90
11089;DHT22;5598;48.648;8.908;2024-03-02T02:42:56;5.00;99.90
11089;DHT22;5598;48.648;8.908;2024-03-02T02:45:23;4.90;99.90
11089;DHT22;5598;48.648;8.908;2024-03-02T02:47:49;4.90;99.90
11089;DHT22;5598;48.648;8.908;2024-03-02T02:50:17;4.80;99.90
11089;DHT22;5598;48.648;8.908;2024-03-02T02:52:48;4.80;99.90
11089;DHT22;5598;48.648;8.908;2024-03-02T02:55:17;4.80;99.90
11089;DHT22;5598;48.648;8.908;2024-03-02T02:57:44;4.80;99.90
11089;DHT22;5598;48.648;8.908;2024-03-02T03:00:13;4.80;99.90
11089;DHT22;5598;48.648;8.908;2024-03-02T03:02:41;4.80;99.90
11089;DHT22;5598;48.648;8.908;2024-03-02T03:05:09;4.80;99.90
11089;DHT22;5598;48.648;8.908;2024-03-02T03:07:36;4.80;99.90
11089;DHT22;5598;48.648;8.908;2024-03-02T03:10:04;4.80;99.90
11089;DHT22;5598;48.648;8.908;2024-03-02T03:12:33;4.70;99.90
11089;DHT22;5598;48.648;8.908;2024-03-02T03:15:00;4.70;99.90
11089;DHT22;5598;48.648;8.908;2024-03-02T03:17:30;4.70;99.90
11089;DHT22;5598;48.648;8.908;2024-03-02T03:19:57;4.70;99.90
11089;DHT22;5598;48.648;8.908;2024-03-02T03:22:23;4.70;99.90
11089;DHT22;5598;48.648;8.908;2024-03-02T03:24:50;4.70;99.90
11089;DHT22;5598;48.648;8.908;2024-03-02T03:27:19;4.70;99.90
11089;DHT22;5598;48.648;8.908;2024-03-02T03:29:47;4.70;99.90
11089;DHT22;5598;48.648;8.908;2024-03-02T03:32:14;4.70;99.90
11089;DHT22;5598;48.648;8.908;2024-03-02T03:34:42;4.60;99.90
11089;DHT22;5598;48.648;8.908;2024-03-02T03:37:09;4.60;99.90
11089;DHT22;5598;48.648;8.908;2024-03-02T03:39:37;4.60;99.90
11089;DHT22;5598;48.648;8.908;2024-03-02T03:42:05;4.50;99.90
11089;DHT22;5598;48.648;8.908;2024-03-02T03:44:32;4.50;99.90
11089;DHT22;5598;48.648;8.908;2024-03-02T03:47:02;4.60;99.90
11089;DHT22;5598;48.648;8.908;2024-03-02T03:49:29;4.60;99.90
11089;DHT22;5598;48.648;8.908;2024-03-02T03:51:56;4.60;99.90
11089;DHT22;5598;48.648;8.908;2024-03-02T03:54:29;4.60;99.90
11089;DHT22;5598;48.648;8.908;2024-03-02T03:56:55;4.60;99.90
11089;DHT22;5598;48.648;8.908;2024-03-02T03:59:28;4.60;99.90
11089;DHT22;5598;48.648;8.908;2024-03-02T04:01:55;4.60;99.90
11089;DHT22;5598;48.648;8.908;2024-03-02T04:04:23;4.50;99.90
11089;DHT22;5598;48.648;8.908;2024-03-02T04:06:55;4.50;99.90
11089;DHT22;5598;48.648;8.908;2024-03-02T04:09:22;4.50;99.90
11089;DHT22;5598;48.648;8.908;2024-03-02T04:11:55;4.50;99.90
11089;DHT22;5598;48.648;8.908;2024-03-02T04:14:22;4.40;99.90
11089;DHT22;5598;48.648;8.908;2024-03-02T04:16:49;4.40;99.90
11089;DHT22;5598;48.648;8.908;2024-03-02T04:19:23;4.40;99.90
11089;DHT22;5598;48.648;8.908;2024-03-02T04:21:50;4.40;99.90
11089;DHT22;5598;48.648;8.908;2024-03-02T04:24:27;4.40;99.90
11089;DHT22;5598;48.648;8.908;2024-03-02T04:26:56;4.30;99.90
11089;DHT22;5598;48.648;8.908;2024-03-02T04:29:24;4.30;99.90
11089;DHT22;5598;48.648;8.908;2024-03-02T04:31:51;4.30;99.90
11089;DHT22;5598;48.648;8.908;2024-03-02T04:34:20;4.30;99.90
11089;DHT22;5598;48.648;8.908;2024-03-02T04:36:48;4.30;99.90
11089;DHT22;5598;48.648;8.908;2024-03-02T04:39:15;4.40;99.90
11089;DHT22;5598;48.648;8.908;2024-03-02T04:41:42;4.30;99.90
11089;DHT22;5598;48.648;8.908;2024-03-02T04:44:09;4.30;99.90
11089;DHT22;5598;48.648;8.908;2024-03-02T04:46:36;4.40;99.90
11089;DHT22;5598;48.648;8.908;2024-03-02T04:49:02;4.30;99.90
11089;DHT22;5598;48.648;8.908;2024-03-02T04:51:29;4.30;99.90
11089;DHT22;5598;48.648;8.908;2024-03-02T04:53:57;4.40;99.90
11089;DHT22;5598;48.648;8.908;2024-03-02T04:56:24;4.40;99.90
11089;DHT22;5598;48.648;8.908;2024-03-02T04:59:05;4.40;99.90
11089;DHT22;5598;48.648;8.908;2024-03-02T05:01:32;4.40;99.90
11089;DHT22;5598;48.648;8.908;2024-03-02T05:03:59;4.40;99.90
11089;DHT22;5598;48.648;8.908;2024-03-02T05:06:26;4.40;99.90
11089;DHT22;5598;48.648;8.908;2024-03-02T05:08:52;4.40;99.90
11089;DHT22;5598;48.648;8.908;2024-03-02T05:11:20;4.40;99.90
11089;DHT22;5598;48.648;8.908;2024-03-02T05:14:18;4.40;99.90
11089;DHT22;5598;48.648;8.908;2024-03-02T05:16:45;4.40;99.90
11089;DHT22;5598;48.648;8.908;2024-03-02T05:19:12;4.40;99.90
11089;DHT22;5598;48.648;8.908;2024-03-02T05:21:38;4.50;99.90
11089;DHT22;5598;48.648;8.908;2024-03-02T05:24:05;4.50;99.90
11089;DHT22;5598;48.648;8.908;2024-03-02T05:26:34;4.40;99.90
11089;DHT22;5598;48.648;8.908;2024-03-02T05:29:00;4.50;99.90
11089;DHT22;5598;48.648;8.908;2024-03-02T05:31:29;4.40;99.90
11089;DHT22;5598;48.648;8.908;2024-03-02T05:33:56;4.40;99.90
11089;DHT22;5598;48.648;8.908;2024-03-02T05:36:29;4.40;99.90
11089;DHT22;5598;48.648;8.908;2024-03-02T05:38:55;4.40;99.90
11089;DHT22;5598;48.648;8.908;2024-03-02T05:41:22;4.40;99.90
11089;DHT22;5598;48.648;8.908;2024-03-02T05:43:56;4.40;99.90
11089;DHT22;5598;48.648;8.908;2024-03-02T05:46:23;4.30;99.90
11089;DHT22;5598;48.648;8.908;2024-03-02T05:48:52;4.40;99.90
11089;DHT22;5598;48.648;8.908;2024-03-02T05:51:18;4.30;99.90
11089;DHT22;5598;48.648;8.908;2024-03-02T05:53:45;4.30;99.90
11089;DHT22;5598;48.648;8.908;2024-03-02T05:56:14;4.30;99.90
11089;DHT22;5598;48.648;8.908;2024-03-02T05:58:41;4.30;99.90
11089;DHT22;5598;48.648;8.908;2024-03-02T06:01:24;4.20;99.90
11089;DHT22;5598;48.648;8.908;2024-03-02T06:04:00;4.20;99.90
11089;DHT22;5598;48.648;8.908;2024-03-02T06:06:26;4.30;99.90
11089;DHT22;5598;48.648;8.908;2024-03-02T06:08:53;4.20;99.90
11089;DHT22;5598;48.648;8.908;2024-03-02T06:11:20;4.20;99.90
11089;DHT22;5598;48.648;8.908;2024-03-02T06:13:47;4.20;99.90
11089;DHT22;5598;48.648;8.908;2024-03-02T06:16:14;4.20;99.90
11089;DHT22;5598;48.648;8.908;2024-03-02T06:18:42;4.20;99.90
11089;DHT22;5598;48.648;8.908;2024-03-02T06:21:13;4.20;99.90
11089;DHT22;5598;48.648;8.908;2024-03-02T06:23:40;4.20;99.90
11089;DHT22;5598;48.648;8.908;2024-03-02T06:26:07;4.30;99.90
11089;DHT22;5598;48.648;8.908;2024-03-02T06:28:34;4.20;99.90
11089;DHT22;5598;48.648;8.908;2024-03-02T06:31:01;4.20;99.90
11089;DHT22;5598;48.648;8.908;2024-03-02T06:33:28;4.30;99.90
11089;DHT22;5598;48.648;8.908;2024-03-02T06:35:56;4.30;99.90
11089;DHT22;5598;48.648;8.908;2024-03-02T06:38:23;4.30;99.90
11089;DHT22;5598;48.648;8.908;2024-03-02T06:40:50;4.40;99.90
11089;DHT22;5598;48.648;8.908;2024-03-02T06:43:17;4.40;99.90
11089;DHT22;5598;48.648;8.908;2024-03-02T06:45:43;4.50;99.90
11089;DHT22;5598;48.648;8.908;2024-03-02T06:48:10;4.60;99.90
11089;DHT22;5598;48.648;8.908;2024-03-02T06:50:37;4.60;99.90
11089;DHT22;5598;48.648;8.908;2024-03-02T06:53:13;4.70;99.90
11089;DHT22;5598;48.648;8.908;2024-03-02T06:55:43;4.80;99.90
11089;DHT22;5598;48.648;8.908;2024-03-02T06:58:09;5.10;99.90
11089;DHT22;5598;48.648;8.908;2024-03-02T07:00:36;5.50;99.90
11089;DHT22;5598;48.648;8.908;2024-03-02T07:03:04;5.90;99.90
11089;DHT22;5598;48.648;8.908;2024-03-02T07:05:31;6.20;99.90
11089;DHT22;5598;48.648;8.908;2024-03-02T07:07:57;6.50;99.90
11089;DHT22;5598;48.648;8.908;2024-03-02T07:10:26;6.40;99.90
11089;DHT22;5598;48.648;8.908;2024-03-02T07:12:53;6.20;99.90
11089;DHT22;5598;48.648;8.908;2024-03-02T07:15:19;6.00;99.90
11089;DHT22;5598;48.648;8.908;2024-03-02T07:18:09;5.80;99.90
11089;DHT22;5598;48.648;8.908;2024-03-02T07:20:36;5.60;99.90
11089;DHT22;5598;48.648;8.908;2024-03-02T07:23:04;5.50;99.90
11089;DHT22;5598;48.648;8.908;2024-03-02T07:25:32;5.50;99.90
11089;DHT22;5598;48.648;8.908;2024-03-02T07:27:59;5.40;99.90
11089;DHT22;5598;48.648;8.908;2024-03-02T07:30:26;5.30;99.90
11089;DHT22;5598;48.648;8.908;2024-03-02T07:32:53;5.30;99.90
11089;DHT22;5598;48.648;8.908;2024-03-02T07:35:20;5.30;99.90
11089;DHT22;5598;48.648;8.908;2024-03-02T07:37:48;5.20;99.90
11089;DHT22;5598;48.648;8.908;2024-03-02T07:40:14;5.20;99.90
11089;DHT22;5598;48.648;8.908;2024-03-02T07:42:43;5.20;99.90
11089;DHT22;5598;48.648;8.908;2024-03-02T07:45:10;5.20;99.90
11089;DHT22;5598;48.648;8.908;2024-03-02T07:47:37;5.40;99.90
11089;DHT22;5598;48.648;8.908;2024-03-02T07:50:05;5.60;99.90
11089;DHT22;5598;48.648;8.908;2024-03-02T07:52:32;5.90;99.90
11089;DHT22;5598;48.648;8.908;2024-03-02T07:54:59;6.20;99.90
11089;DHT22;5598;48.648;8.908;2024-03-02T07:57:26;6.50;99.90
11089;DHT22;5598;48.648;8.908;2024-03-02T07:59:54;6.90;99.90
11089;DHT22;5598;48.648;8.908;2024-03-02T08:02:21;7.40;99.90
11089;DHT22;5598;48.648;8.908;2024-03-02T08:04:48;7.80;99.90
11089;DHT22;5598;48.648;8.908;2024-03-02T08:07:15;8.00;99.90
11089;DHT22;5598;48.648;8.908;2024-03-02T08:09:42;8.00;99.90
11089;DHT22;5598;48.648;8.908;2024-03-02T08:12:09;7.90;99.90
11089;DHT22;5598;48.648;8.908;2024-03-02T08:14:36;7.80;99.90
11089;DHT22;5598;48.648;8.908;2024-03-02T08:17:04;7.60;99.90
11089;DHT22;5598;48.648;8.908;2024-03-02T08:19:35;7.40;99.90
11089;DHT22;5598;48.648;8.908;2024-03-02T08:22:03;7.20;99.90
11089;DHT22;5598;48.648;8.908;2024-03-02T08:24:29;7.10;99.90
11089;DHT22;5598;48.648;8.908;2024-03-02T08:26:57;7.10;99.90
11089;DHT22;5598;48.648;8.908;2024-03-02T08:29:24;7.10;99.90
11089;DHT22;5598;48.648;8.908;2024-03-02T08:31:51;7.00;99.90
11089;DHT22;5598;48.648;8.908;2024-03-02T08:34:19;7.00;99.90
11089;DHT22;5598;48.648;8.908;2024-03-02T08:36:46;7.00;99.90
11089;DHT22;5598;48.648;8.908;2024-03-02T08:39:13;7.00;99.90
11089;DHT22;5598;48.648;8.908;2024-03-02T08:41:41;7.00;99.90
11089;DHT22;5598;48.648;8.908;2024-03-02T08:44:08;7.10;99.90
11089;DHT22;5598;48.648;8.908;2024-03-02T08:46:35;7.20;99.90
11089;DHT22;5598;48.648;8.908;2024-03-02T08:49:03;7.50;99.90
11089;DHT22;5598;48.648;8.908;2024-03-02T08:51:31;7.90;99.90
11089;DHT22;5598;48.648;8.908;2024-03-02T08:53:59;8.50;99.90
11089;DHT22;5598;48.648;8.908;2024-03-02T08:56:26;8.90;99.90
11089;DHT22;5598;48.648;8.908;2024-03-02T08:58:53;9.40;99.90
11089;DHT22;5598;48.648;8.908;2024-03-02T09:01:20;9.80;99.90
11089;DHT22;5598;48.648;8.908;2024-03-02T09:03:47;10.10;99.90
11089;DHT22;5598;48.648;8.908;2024-03-02T09:06:14;10.40;99.90
11089;DHT22;5598;48.648;8.908;2024-03-02T09:08:43;10.70;99.90
11089;DHT22;5598;48.648;8.908;2024-03-02T09:11:10;10.90;99.90
11089;DHT22;5598;48.648;8.908;2024-03-02T09:13:38;11.00;99.90
11089;DHT22;5598;48.648;8.908;2024-03-02T09:16:05;11.20;99.90
11089;DHT22;5598;48.648;8.908;2024-03-02T09:18:32;11.40;99.90
11089;DHT22;5598;48.648;8.908;2024-03-02T09:20:59;11.70;98.20
11089;DHT22;5598;48.648;8.908;2024-03-02T09:23:25;12.00;97.60
11089;DHT22;5598;48.648;8.908;2024-03-02T09:25:54;12.20;96.10
11089;DHT22;5598;48.648;8.908;2024-03-02T09:28:21;12.40;95.80
11089;DHT22;5598;48.648;8.908;2024-03-02T09:30:48;12.60;95.60
11089;DHT22;5598;48.648;8.908;2024-03-02T09:33:15;12.60;94.20
11089;DHT22;5598;48.648;8.908;2024-03-02T09:35:42;12.80;94.10
11089;DHT22;5598;48.648;8.908;2024-03-02T09:38:08;12.70;93.80
11089;DHT22;5598;48.648;8.908;2024-03-02T09:40:36;13.00;93.50
11089;DHT22;5598;48.648;8.908;2024-03-02T09:43:04;13.20;92.40
11089;DHT22;5598;48.648;8.908;2024-03-02T09:45:31;13.30;93.20
11089;DHT22;5598;48.648;8.908;2024-03-02T09:47:58;13.50;92.40
11089;DHT22;5598;48.648;8.908;2024-03-02T09:50:25;13.50;92.00
11089;DHT22;5598;48.648;8.908;2024-03-02T09:52:52;13.40;92.20
11089;DHT22;5598;48.648;8.908;2024-03-02T09:55:20;13.60;91.50
11089;DHT22;5598;48.648;8.908;2024-03-02T09:57:47;13.60;91.10
11089;DHT22;5598;48.648;8.908;2024-03-02T10:00:17;13.60;90.80
11089;DHT22;5598;48.648;8.908;2024-03-02T10:02:44;13.60;91.50
11089;DHT22;5598;48.648;8.908;2024-03-02T10:05:23;13.60;92.80
11089;DHT22;5598;48.648;8.908;2024-03-02T10:07:58;13.60;92.60
11089;DHT22;5598;48.648;8.908;2024-03-02T10:10:34;13.60;91.60
11089;DHT22;5598;48.648;8.908;2024-03-02T10:13:04;13.60;91.70
11089;DHT22;5598;48.648;8.908;2024-03-02T10:15:33;13.60;92.10
11089;DHT22;5598;48.648;8.908;2024-03-02T10:18:00;13.70;91.20
11089;DHT22;5598;48.648;8.908;2024-03-02T10:20:27;13.70;91.70
11089;DHT22;5598;48.648;8.908;2024-03-02T10:22:55;13.90;92.20
11089;DHT22;5598;48.648;8.908;2024-03-02T10:25:31;14.10;91.90
11089;DHT22;5598;48.648;8.908;2024-03-02T10:27:59;14.60;91.80
11089;DHT22;5598;48.648;8.908;2024-03-02T10:30:26;14.80;91.00
11089;DHT22;5598;48.648;8.908;2024-03-02T10:32:55;15.00;91.30
11089;DHT22;5598;48.648;8.908;2024-03-02T10:35:22;15.30;90.50
11089;DHT22;5598;48.648;8.908;2024-03-02T10:37:50;15.70;90.90
11089;DHT22;5598;48.648;8.908;2024-03-02T10:40:18;16.00;90.30
11089;DHT22;5598;48.648;8.908;2024-03-02T10:42:45;16.40;88.50
11089;DHT22;5598;48.648;8.908;2024-03-02T10:45:12;16.50;86.10
11089;DHT22;5598;48.648;8.908;2024-03-02T10:47:42;16.50;84.50
11089;DHT22;5598;48.648;8.908;2024-03-02T10:50:11;16.80;86.20
11089;DHT22;5598;48.648;8.908;2024-03-02T10:52:38;17.00;82.90
11089;DHT22;5598;48.648;8.908;2024-03-02T10:55:07;17.10;81.50
11089;DHT22;5598;48.648;8.908;2024-03-02T10:57:41;17.20;80.30
11089;DHT22;5598;48.648;8.908;2024-03-02T11:00:12;17.30;80.50
11089;DHT22;5598;48.648;8.908;2024-03-02T11:02:44;17.20;80.30
11089;DHT22;5598;48.648;8.908;2024-03-02T11:05:23;17.20;80.60
11089;DHT22;5598;48.648;8.908;2024-03-02T11:07:53;17.40;83.60
11089;DHT22;5598;48.648;8.908;2024-03-02T11:10:23;17.70;82.10
11089;DHT22;5598;48.648;8.908;2024-03-02T11:12:55;17.90;81.60
11089;DHT22;5598;48.648;8.908;2024-03-02T11:15:25;18.00;79.40
11089;DHT22;5598;48.648;8.908;2024-03-02T11:17:53;18.40;84.20
11089;DHT22;5598;48.648;8.908;2024-03-02T11:20:23;18.50;80.50
11089;DHT22;5598;48.648;8.908;2024-03-02T11:22:51;18.40;79.00
11089;DHT22;5598;48.648;8.908;2024-03-02T11:25:24;18.60;82.90
11089;DHT22;5598;48.648;8.908;2024-03-02T11:28:02;18.80;79.30
11089;DHT22;5598;48.648;8.908;2024-03-02T11:30:56;19.00;80.60
11089;DHT22;5598;48.648;8.908;2024-03-02T11:33:24;19.10;81.60
11089;DHT22;5598;48.648;8.908;2024-03-02T11:35:56;19.20;81.40
11089;DHT22;5598;48.648;8.908;2024-03-02T11:38:24;19.00;79.70
11089;DHT22;5598;48.648;8.908;2024-03-02T11:40:51;19.20;79.80
11089;DHT22;5598;48.648;8.908;2024-03-02T11:43:19;19.30;79.00
11089;DHT22;5598;48.648;8.908;2024-03-02T11:45:46;19.30;74.20
11089;DHT22;5598;48.648;8.908;2024-03-02T11:48:15;19.20;73.20
11089;DHT22;5598;48.648;8.908;2024-03-02T11:50:42;19.20;75.30
11089;DHT22;5598;48.648;8.908;2024-03-02T11:53:14;19.10;70.70
11089;DHT22;5598;48.648;8.908;2024-03-02T11:55:41;19.00;71.10
11089;DHT22;5598;48.648;8.908;2024-03-02T11:58:12;19.20;72.20
11089;DHT22;5598;48.648;8.908;2024-03-02T12:00:39;19.20;76.30
11089;DHT22;5598;48.648;8.908;2024-03-02T12:03:07;19.40;75.40
11089;DHT22;5598;48.648;8.908;2024-03-02T12:05:34;19.50;71.60
11089;DHT22;5598;48.648;8.908;2024-03-02T12:08:03;19.40;70.40
11089;DHT22;5598;48.648;8.908;2024-03-02T12:10:31;19.40;72.60
11089;DHT22;5598;48.648;8.908;2024-03-02T12:12:59;19.40;67.20
11089;DHT22;5598;48.648;8.908;2024-03-02T12:15:27;19.20;69.70
11089;DHT22;5598;48.648;8.908;2024-03-02T12:17:54;19.00;68.30
11089;DHT22;5598;48.648;8.908;2024-03-02T12:20:22;18.60;68.10
11089;DHT22;5598;48.648;8.908;2024-03-02T12:22:50;18.30;67.90
11089;DHT22;5598;48.648;8.908;2024-03-02T12:25:25;18.20;70.20
11089;DHT22;5598;48.648;8.908;2024-03-02T12:27:57;18.00;69.50
11089;DHT22;5598;48.648;8.908;2024-03-02T12:30:26;17.80;69.10
11089;DHT22;5598;48.648;8.908;2024-03-02T12:32:54;17.70;68.20
11089;DHT22;5598;48.648;8.908;2024-03-02T12:35:21;17.60;70.20
11089;DHT22;5598;48.648;8.908;2024-03-02T12:37:49;17.50;69.00
11089;DHT22;5598;48.648;8.908;2024-03-02T12:40:17;17.30;68.80
11089;DHT22;5598;48.648;8.908;2024-03-02T12:42:45;17.00;67.70
11089;DHT22;5598;48.648;8.908;2024-03-02T12:45:14;16.90;69.60
11089;DHT22;5598;48.648;8.908;2024-03-02T12:47:42;16.90;70.40
11089;DHT22;5598;48.648;8.908;2024-03-02T12:50:10;16.90;70.50
11089;DHT22;5598;48.648;8.908;2024-03-02T12:52:36;16.80;72.20
11089;DHT22;5598;48.648;8.908;2024-03-02T12:55:05;16.80;74.20
11089;DHT22;5598;48.648;8.908;2024-03-02T12:57:32;16.80;73.60
11089;DHT22;5598;48.648;8.908;2024-03-02T13:00:00;16.70;71.00
11089;DHT22;5598;48.648;8.908;2024-03-02T13:02:32;16.50;71.40
11089;DHT22;5598;48.648;8.908;2024-03-02T13:04:59;16.40;71.70
11089;DHT22;5598;48.648;8.908;2024-03-02T13:07:26;16.30;71.80
11089;DHT22;5598;48.648;8.908;2024-03-02T13:09:54;16.30;72.90
11089;DHT22;5598;48.648;8.908;2024-03-02T13:12:22;16.30;76.50
11089;DHT22;5598;48.648;8.908;2024-03-02T13:14:52;16.20;77.50
11089;DHT22;5598;48.648;8.908;2024-03-02T13:17:19;16.00;75.40
11089;DHT22;5598;48.648;8.908;2024-03-02T13:19:55;16.00;74.60
11089;DHT22;5598;48.648;8.908;2024-03-02T13:22:23;15.90;77.80
11089;DHT22;5598;48.648;8.908;2024-03-02T13:24:50;15.90;80.60
11089;DHT22;5598;48.648;8.908;2024-03-02T13:27:17;15.70;79.00
11089;DHT22;5598;48.648;8.908;2024-03-02T13:29:45;15.70;79.70
11089;DHT22;5598;48.648;8.908;2024-03-02T13:32:12;15.70;79.60
11089;DHT22;5598;48.648;8.908;2024-03-02T13:34:39;15.60;79.30
11089;DHT22;5598;48.648;8.908;2024-03-02T13:37:08;15.70;79.30
11089;DHT22;5598;48.648;8.908;2024-03-02T13:39:34;15.50;80.40
11089;DHT22;5598;48.648;8.908;2024-03-02T13:42:06;15.50;81.70
11089;DHT22;5598;48.648;8.908;2024-03-02T13:44:34;15.60;81.90
11089;DHT22;5598;48.648;8.908;2024-03-02T13:47:01;15.70;83.90
11089;DHT22;5598;48.648;8.908;2024-03-02T13:49:28;15.70;82.20
11089;DHT22;5598;48.648;8.908;2024-03-02T13:51:59;15.90;80.90
11089;DHT22;5598;48.648;8.908;2024-03-02T13:54:30;16.00;82.50
11089;DHT22;5598;48.648;8.908;2024-03-02T13:56:58;16.20;81.50
11089;DHT22;5598;48.648;8.908;2024-03-02T13:59:26;16.40;83.40
11089;DHT22;5598;48.648;8.908;2024-03-02T14:01:53;16.30;78.20
11089;DHT22;5598;48.648;8.908;2024-03-02T14:04:20;16.40;81.30
11089;DHT22;5598;48.648;8.908;2024-03-02T14:06:47;16.40;80.00
11089;DHT22;5598;48.648;8.908;2024-03-02T14:09:14;16.50;80.30
11089;DHT22;5598;48.648;8.908;2024-03-02T14:11:42;16.60;78.60
11089;DHT22;5598;48.648;8.908;2024-03-02T14:14:09;16.70;77.60
11089;DHT22;5598;48.648;8.908;2024-03-02T14:16:36;16.80;77.80
11089;DHT22;5598;48.648;8.908;2024-03-02T14:19:03;16.90;77.50
11089;DHT22;5598;48.648;8.908;2024-03-02T14:21:30;17.10;79.50
11089;DHT22;5598;48.648;8.908;2024-03-02T14:23:57;17.10;78.40
11089;DHT22;5598;48.648;8.908;2024-03-02T14:26:24;17.20;77.20
11089;DHT22;5598;48.648;8.908;2024-03-02T14:28:52;17.30;77.90
11089;DHT22;5598;48.648;8.908;2024-03-02T14:31:19;17.40;77.00
11089;DHT22;5598;48.648;8.908;2024-03-02T14:33:46;17.40;76.60
11089;DHT22;5598;48.648;8.908;2024-03-02T14:36:13;17.50;76.00
11089;DHT22;5598;48.648;8.908;2024-03-02T14:38:43;17.50;74.80
11089;DHT22;5598;48.648;8.908;2024-03-02T14:41:09;17.50;73.10
11089;DHT22;5598;48.648;8.908;2024-03-02T14:43:36;17.50;75.60
11089;DHT22;5598;48.648;8.908;2024-03-02T14:46:06;17.50;72.90
11089;DHT22;5598;48.648;8.908;2024-03-02T14:48:34;17.40;73.30
11089;DHT22;5598;48.648;8.908;2024-03-02T14:51:00;17.40;73.60
11089;DHT22;5598;48.648;8.908;2024-03-02T14:53:27;17.50;75.20
11089;DHT22;5598;48.648;8.908;2024-03-02T14:55:54;17.50;72.70
11089;DHT22;5598;48.648;8.908;2024-03-02T14:58:21;17.40;73.50
11089;DHT22;5598;48.648;8.908;2024-03-02T15:00:48;17.40;72.60
11089;DHT22;5598;48.648;8.908;2024-03-02T15:03:17;17.30;72.10
11089;DHT22;5598;48.648;8.908;2024-03-02T15:05:44;17.10;71.60
11089;DHT22;5598;48.648;8.908;2024-03-02T15:08:12;17.00;71.50
11089;DHT22;5598;48.648;8.908;2024-03-02T15:10:38;16.80;71.40
11089;DHT22;5598;48.648;8.908;2024-03-02T15:13:05;16.60;72.60
11089;DHT22;5598;48.648;8.908;2024-03-02T15:15:32;16.40;72.70
11089;DHT22;5598;48.648;8.908;2024-03-02T15:17:59;16.30;73.00
11089;DHT22;5598;48.648;8.908;2024-03-02T15:20:27;16.20;73.40
11089;DHT22;5598;48.648;8.908;2024-03-02T15:22:54;16.00;74.30
11089;DHT22;5598;48.648;8.908;2024-03-02T15:25:21;15.90;73.90
11089;DHT22;5598;48.648;8.908;2024-03-02T15:27:48;15.90;74.50
11089;DHT22;5598;48.648;8.908;2024-03-02T15:30:15;15.80;75.40
11089;DHT22;5598;48.648;8.908;2024-03-02T15:32:42;15.70;76.70
11089;DHT22;5598;48.648;8.908;2024-03-02T15:35:08;15.60;76.30
11089;DHT22;5598;48.648;8.908;2024-03-02T15:37:37;15.50;76.70
11089;DHT22;5598;48.648;8.908;2024-03-02T15:40:05;15.40;76.00
11089;DHT22;5598;48.648;8.908;2024-03-02T15:42:34;15.30;77.10
11089;DHT22;5598;48.648;8.908;2024-03-02T15:45:01;15.30;79.10
11089;DHT22;5598;48.648;8.908;2024-03-02T15:47:28;15.20;80.00
11089;DHT22;5598;48.648;8.908;2024-03-02T15:49:55;15.10;79.70
11089;DHT22;5598;48.648;8.908;2024-03-02T15:52:21;15.10;79.50
11089;DHT22;5598;48.648;8.908;2024-03-02T15:54:50;15.00;78.70
11089;DHT22;5598;48.648;8.908;2024-03-02T15:57:17;14.90;78.80
11089;DHT22;5598;48.648;8.908;2024-03-02T15:59:44;14.90;80.10
11089;DHT22;5598;48.648;8.908;2024-03-02T16:02:10;14.80;79.90